sensor_id;sensor_type;location;lat;lon;timestamp;pressure;altitude;pressure_sealevel;temperature;humidity
37778;BME280;23615;51.506;7.678;2023-01-31T00:01:17;100785.53;;;4.73;95.80
37778;BME280;23615;51.506;7.678;2023-01-31T00:03:43;100779.22;;;4.74;95.81
37778;BME280;23615;51.506;7.678;2023-01-31T00:06:16;100787.66;;;4.69;95.61
37778;BME280;23615;51.506;7.678;2023-01-31T00:08:42;100790.47;;;4.60;95.85
37778;BME280;23615;51.506;7.678;2023-01-31T00:11:08;100790.16;;;4.55;96.62
37778;BME280;23615;51.506;7.678;2023-01-31T00:13:34;100786.00;;;4.60;96.11
37778;BME280;23615;51.506;7.678;2023-01-31T00:15:59;100790.97;;;4.47;96.71
37778;BME280;23615;51.506;7.678;2023-01-31T00:18:25;100780.56;;;4.45;96.64
37778;BME280;23615;51.506;7.678;2023-01-31T00:20:50;100789.66;;;4.43;96.80
37778;BME280;23615;51.506;7.678;2023-01-31T00:23:16;100786.34;;;4.41;97.14
37778;BME280;23615;51.506;7.678;2023-01-31T00:25:41;100783.38;;;4.44;97.58
37778;BME280;23615;51.506;7.678;2023-01-31T00:28:06;100782.72;;;4.42;97.59
37778;BME280;23615;51.506;7.678;2023-01-31T00:30:32;100772.66;;;4.45;97.27
37778;BME280;23615;51.506;7.678;2023-01-31T00:32:57;100787.00;;;4.51;96.96
37778;BME280;23615;51.506;7.678;2023-01-31T00:35:23;100798.25;;;4.53;96.49
37778;BME280;23615;51.506;7.678;2023-01-31T00:37:48;100799.72;;;4.47;97.10
37778;BME280;23615;51.506;7.678;2023-01-31T00:40:13;100793.59;;;4.39;97.68
37778;BME280;23615;51.506;7.678;2023-01-31T00:42:39;100784.38;;;4.43;96.98
37778;BME280;23615;51.506;7.678;2023-01-31T00:45:05;100778.25;;;4.42;96.75
37778;BME280;23615;51.506;7.678;2023-01-31T00:47:31;100784.38;;;4.43;96.83
37778;BME280;23615;51.506;7.678;2023-01-31T00:49:56;100787.69;;;4.37;96.38
37778;BME280;23615;51.506;7.678;2023-01-31T00:52:21;100785.50;;;4.32;97.42
37778;BME280;23615;51.506;7.678;2023-01-31T00:54:47;100788.81;;;4.34;97.07
37778;BME280;23615;51.506;7.678;2023-01-31T00:57:12;100783.03;;;4.39;97.26
37778;BME280;23615;51.506;7.678;2023-01-31T00:59:37;100767.03;;;4.40;97.02
37778;BME280;23615;51.506;7.678;2023-01-31T01:02:03;100767.53;;;4.36;96.96
37778;BME280;23615;51.506;7.678;2023-01-31T01:04:28;100779.56;;;4.38;97.33
37778;BME280;23615;51.506;7.678;2023-01-31T01:06:53;100775.09;;;4.31;97.70
37778;BME280;23615;51.506;7.678;2023-01-31T01:09:18;100772.16;;;4.34;97.56
37778;BME280;23615;51.506;7.678;2023-01-31T01:11:44;100769.50;;;4.42;97.09
37778;BME280;23615;51.506;7.678;2023-01-31T01:14:09;100770.00;;;4.45;96.60
37778;BME280;23615;51.506;7.678;2023-01-31T01:16:37;100780.75;;;4.44;96.55
37778;BME280;23615;51.506;7.678;2023-01-31T01:19:05;100774.13;;;4.48;96.48
37778;BME280;23615;51.506;7.678;2023-01-31T01:21:32;100777.44;;;4.50;96.00
37778;BME280;23615;51.506;7.678;2023-01-31T01:24:02;100779.75;;;4.45;96.38
37778;BME280;23615;51.506;7.678;2023-01-31T01:26:30;100781.06;;;4.49;95.91
37778;BME280;23615;51.506;7.678;2023-01-31T01:28:57;100777.28;;;4.43;96.72
37778;BME280;23615;51.506;7.678;2023-01-31T01:31:23;100781.38;;;4.38;96.37
37778;BME280;23615;51.506;7.678;2023-01-31T01:33:55;100783.69;;;4.41;96.75
37778;BME280;23615;51.506;7.678;2023-01-31T01:36:22;100772.31;;;4.40;96.34
37778;BME280;23615;51.506;7.678;2023-01-31T01:38:47;100768.69;;;4.41;96.38
37778;BME280;23615;51.506;7.678;2023-01-31T01:41:13;100774.13;;;4.48;95.93
37778;BME280;23615;51.506;7.678;2023-01-31T01:43:51;100767.84;;;4.49;96.35
37778;BME280;23615;51.506;7.678;2023-01-31T01:48:43;100765.34;;;4.56;95.31
37778;BME280;23615;51.506;7.678;2023-01-31T01:51:09;100774.78;;;4.50;95.08
37778;BME280;23615;51.506;7.678;2023-01-31T01:53:38;100777.44;;;4.50;94.98
37778;BME280;23615;51.506;7.678;2023-01-31T01:56:28;100775.78;;;4.49;94.19
37778;BME280;23615;51.506;7.678;2023-01-31T01:59:01;100765.03;;;4.50;94.88
37778;BME280;23615;51.506;7.678;2023-01-31T02:01:34;100768.19;;;4.46;94.64
37778;BME280;23615;51.506;7.678;2023-01-31T02:04:00;100776.28;;;4.53;94.62
37778;BME280;23615;51.506;7.678;2023-01-31T02:06:26;100765.72;;;4.44;94.42
37778;BME280;23615;51.506;7.678;2023-01-31T02:08:52;100754.81;;;4.39;93.92
37778;BME280;23615;51.506;7.678;2023-01-31T02:11:22;100771.00;;;4.44;94.26
37778;BME280;23615;51.506;7.678;2023-01-31T02:13:50;100772.31;;;4.40;94.33
37778;BME280;23615;51.506;7.678;2023-01-31T02:16:16;100769.19;;;4.37;94.65
37778;BME280;23615;51.506;7.678;2023-01-31T02:18:43;100769.50;;;4.42;94.26
37778;BME280;23615;51.506;7.678;2023-01-31T02:21:25;100777.91;;;4.37;94.44
37778;BME280;23615;51.506;7.678;2023-01-31T02:27:22;100790.31;;;4.37;94.33
37778;BME280;23615;51.506;7.678;2023-01-31T02:30:18;100796.91;;;4.41;93.87
37778;BME280;23615;51.506;7.678;2023-01-31T02:32:53;100807.16;;;4.44;94.06
37778;BME280;23615;51.506;7.678;2023-01-31T02:44:29;100803.19;;;4.40;93.90
37778;BME280;23615;51.506;7.678;2023-01-31T02:53:01;100798.25;;;4.45;92.73
37778;BME280;23615;51.506;7.678;2023-01-31T02:55:34;100801.88;;;4.52;93.21
37778;BME280;23615;51.506;7.678;2023-01-31T02:58:19;100791.13;;;4.54;92.97
37778;BME280;23615;51.506;7.678;2023-01-31T03:00:47;100796.25;;;4.47;92.91
37778;BME280;23615;51.506;7.678;2023-01-31T03:03:28;100799.72;;;4.47;92.88
37778;BME280;23615;51.506;7.678;2023-01-31T03:06:09;100799.38;;;4.42;93.22
37778;BME280;23615;51.506;7.678;2023-01-31T03:08:36;100789.63;;;4.59;92.23
37778;BME280;23615;51.506;7.678;2023-01-31T03:11:04;100793.78;;;4.54;92.57
37778;BME280;23615;51.506;7.678;2023-01-31T03:19:00;100780.56;;;4.70;91.74
37778;BME280;23615;51.506;7.678;2023-01-31T03:21:34;100773.28;;;4.56;91.43
37778;BME280;23615;51.506;7.678;2023-01-31T03:24:03;100785.34;;;4.50;91.82
37778;BME280;23615;51.506;7.678;2023-01-31T03:26:29;100775.44;;;4.44;91.83
37778;BME280;23615;51.506;7.678;2023-01-31T03:28:56;100761.91;;;4.39;91.57
37778;BME280;23615;51.506;7.678;2023-01-31T03:31:29;100766.34;;;4.46;91.96
37778;BME280;23615;51.506;7.678;2023-01-31T03:34:01;100764.06;;;4.51;91.80
37778;BME280;23615;51.506;7.678;2023-01-31T03:37:32;100757.44;;;4.47;92.00
37778;BME280;23615;51.506;7.678;2023-01-31T03:39:39;100750.00;;;4.51;91.62
37778;BME280;23615;51.506;7.678;2023-01-31T03:45:03;100745.03;;;4.56;91.42
37778;BME280;23615;51.506;7.678;2023-01-31T03:47:41;100737.47;;;4.53;91.12
37778;BME280;23615;51.506;7.678;2023-01-31T03:50:26;100737.63;;;4.60;91.44
37778;BME280;23615;51.506;7.678;2023-01-31T03:53:08;100726.56;;;4.48;91.96
37778;BME280;23615;51.506;7.678;2023-01-31T03:55:39;100727.91;;;4.36;92.17
37778;BME280;23615;51.506;7.678;2023-01-31T03:58:07;100719.97;;;4.44;91.75
37778;BME280;23615;51.506;7.678;2023-01-31T04:00:37;100731.84;;;4.32;92.44
37778;BME280;23615;51.506;7.678;2023-01-31T04:03:19;100729.22;;;4.40;92.11
37778;BME280;23615;51.506;7.678;2023-01-31T04:05:45;100734.16;;;4.10;94.00
37778;BME280;23615;51.506;7.678;2023-01-31T04:08:10;100722.28;;;4.23;93.61
37778;BME280;23615;51.506;7.678;2023-01-31T04:10:36;100727.56;;;4.39;93.07
37778;BME280;23615;51.506;7.678;2023-01-31T04:13:02;100714.69;;;4.36;92.42
37778;BME280;23615;51.506;7.678;2023-01-31T04:15:27;100710.72;;;4.32;92.89
37778;BME280;23615;51.506;7.678;2023-01-31T04:17:53;100716.69;;;4.09;93.28
37778;BME280;23615;51.506;7.678;2023-01-31T04:20:18;100711.88;;;3.97;94.49
37778;BME280;23615;51.506;7.678;2023-01-31T04:22:43;100708.25;;;3.82;96.11
37778;BME280;23615;51.506;7.678;2023-01-31T04:25:09;100714.03;;;4.18;95.39
37778;BME280;23615;51.506;7.678;2023-01-31T04:27:35;100714.19;;;4.24;93.91
37778;BME280;23615;51.506;7.678;2023-01-31T04:30:00;100717.31;;;4.20;93.93
37778;BME280;23615;51.506;7.678;2023-01-31T04:32:26;100717.00;;;4.14;93.76
37778;BME280;23615;51.506;7.678;2023-01-31T04:34:51;100715.19;;;4.15;94.64
37778;BME280;23615;51.506;7.678;2023-01-31T04:37:16;100718.16;;;4.36;93.61
37778;BME280;23615;51.506;7.678;2023-01-31T04:39:42;100716.97;;;4.47;93.55
37778;BME280;23615;51.506;7.678;2023-01-31T04:42:07;100722.28;;;4.39;92.73
37778;BME280;23615;51.506;7.678;2023-01-31T04:44:32;100705.28;;;4.25;93.54
37778;BME280;23615;51.506;7.678;2023-01-31T04:46:58;100710.91;;;4.22;93.62
37778;BME280;23615;51.506;7.678;2023-01-31T04:49:23;100699.84;;;4.27;93.68
37778;BME280;23615;51.506;7.678;2023-01-31T04:51:48;100692.22;;;4.40;93.67
37778;BME280;23615;51.506;7.678;2023-01-31T04:54:14;100690.59;;;4.23;93.69
37778;BME280;23615;51.506;7.678;2023-01-31T04:56:39;100689.94;;;4.45;93.43
37778;BME280;23615;51.506;7.678;2023-01-31T04:59:04;100679.06;;;4.16;94.17
37778;BME280;23615;51.506;7.678;2023-01-31T05:01:30;100692.75;;;4.35;93.00
37778;BME280;23615;51.506;7.678;2023-01-31T05:03:55;100679.38;;;4.37;93.75
37778;BME280;23615;51.506;7.678;2023-01-31T05:06:21;100681.16;;;4.44;93.29
37778;BME280;23615;51.506;7.678;2023-01-31T05:08:46;100681.66;;;4.32;93.72
37778;BME280;23615;51.506;7.678;2023-01-31T05:11:12;100683.00;;;4.11;94.13
37778;BME280;23615;51.506;7.678;2023-01-31T05:13:38;100680.34;;;4.11;94.44
37778;BME280;23615;51.506;7.678;2023-01-31T05:16:07;100678.53;;;4.20;95.09
37778;BME280;23615;51.506;7.678;2023-01-31T05:18:35;100675.41;;;4.25;93.92
37778;BME280;23615;51.506;7.678;2023-01-31T05:21:01;100675.44;;;4.17;94.34
37778;BME280;23615;51.506;7.678;2023-01-31T05:23:27;100670.47;;;4.05;95.03
37778;BME280;23615;51.506;7.678;2023-01-31T05:25:53;100657.59;;;4.02;94.48
37778;BME280;23615;51.506;7.678;2023-01-31T05:28:18;100655.44;;;4.14;95.38
37778;BME280;23615;51.506;7.678;2023-01-31T05:30:44;100656.28;;;4.06;95.09
37778;BME280;23615;51.506;7.678;2023-01-31T05:33:09;100643.22;;;4.13;95.19
37778;BME280;23615;51.506;7.678;2023-01-31T05:35:34;100643.72;;;3.84;96.58
37778;BME280;23615;51.506;7.678;2023-01-31T05:38:00;100650.97;;;3.66;96.34
37778;BME280;23615;51.506;7.678;2023-01-31T05:40:25;100646.88;;;3.63;97.55
37778;BME280;23615;51.506;7.678;2023-01-31T05:42:54;100652.97;;;3.96;96.78
37778;BME280;23615;51.506;7.678;2023-01-31T05:45:20;100642.41;;;3.64;97.42
37778;BME280;23615;51.506;7.678;2023-01-31T05:47:46;100650.31;;;3.56;98.36
37778;BME280;23615;51.506;7.678;2023-01-31T05:50:12;100635.16;;;3.90;96.85
37778;BME280;23615;51.506;7.678;2023-01-31T05:52:38;100642.59;;;3.95;96.94
37778;BME280;23615;51.506;7.678;2023-01-31T05:55:03;100647.03;;;3.94;97.48
37778;BME280;23615;51.506;7.678;2023-01-31T05:57:29;100641.75;;;4.10;96.85
37778;BME280;23615;51.506;7.678;2023-01-31T05:59:54;100630.22;;;3.79;97.63
37778;BME280;23615;51.506;7.678;2023-01-31T06:02:20;100633.84;;;3.86;98.00
37778;BME280;23615;51.506;7.678;2023-01-31T06:04:45;100637.47;;;3.69;98.86
37778;BME280;23615;51.506;7.678;2023-01-31T06:07:11;100631.69;;;4.14;97.88
37778;BME280;23615;51.506;7.678;2023-01-31T06:09:36;100630.00;;;4.21;97.14
37778;BME280;23615;51.506;7.678;2023-01-31T06:12:03;100625.25;;;4.08;96.55
37778;BME280;23615;51.506;7.678;2023-01-31T06:14:29;100613.22;;;4.06;97.13
37778;BME280;23615;51.506;7.678;2023-01-31T06:16:54;100610.72;;;4.12;97.08
37778;BME280;23615;51.506;7.678;2023-01-31T06:19:19;100611.69;;;4.20;97.23
37778;BME280;23615;51.506;7.678;2023-01-31T06:21:49;100610.56;;;4.14;96.89
37778;BME280;23615;51.506;7.678;2023-01-31T06:24:14;100595.72;;;4.05;96.88
37778;BME280;23615;51.506;7.678;2023-01-31T06:26:40;100607.13;;;3.97;97.71
37778;BME280;23615;51.506;7.678;2023-01-31T06:29:08;100610.06;;;4.19;97.73
37778;BME280;23615;51.506;7.678;2023-01-31T06:31:34;100599.84;;;4.16;96.32
37778;BME280;23615;51.506;7.678;2023-01-31T06:33:59;100603.94;;;4.34;96.64
37778;BME280;23615;51.506;7.678;2023-01-31T06:36:24;100607.41;;;4.27;95.40
37778;BME280;23615;51.506;7.678;2023-01-31T06:38:51;100608.06;;;4.21;96.12
37778;BME280;23615;51.506;7.678;2023-01-31T06:41:18;100611.22;;;4.24;95.62
37778;BME280;23615;51.506;7.678;2023-01-31T06:43:43;100609.03;;;4.44;94.75
37778;BME280;23615;51.506;7.678;2023-01-31T06:46:09;100605.34;;;4.53;93.76
37778;BME280;23615;51.506;7.678;2023-01-31T06:48:34;100595.44;;;4.55;93.62
37778;BME280;23615;51.506;7.678;2023-01-31T06:51:00;100598.41;;;4.60;93.23
37778;BME280;23615;51.506;7.678;2023-01-31T06:53:25;100588.84;;;4.51;92.65
37778;BME280;23615;51.506;7.678;2023-01-31T06:55:51;100593.94;;;4.61;92.54
37778;BME280;23615;51.506;7.678;2023-01-31T06:58:16;100606.28;;;4.68;92.40
37778;BME280;23615;51.506;7.678;2023-01-31T07:00:42;100619.00;;;4.73;92.61
37778;BME280;23615;51.506;7.678;2023-01-31T07:03:08;100622.19;;;4.60;92.53
37778;BME280;23615;51.506;7.678;2023-01-31T07:05:33;100633.38;;;4.70;92.02
37778;BME280;23615;51.506;7.678;2023-01-31T07:07:58;100637.00;;;4.69;91.67
37778;BME280;23615;51.506;7.678;2023-01-31T07:10:24;100629.06;;;4.77;91.85
37778;BME280;23615;51.506;7.678;2023-01-31T07:12:49;100639.47;;;4.79;91.79
37778;BME280;23615;51.506;7.678;2023-01-31T07:15:14;100636.81;;;4.79;91.97
37778;BME280;23615;51.506;7.678;2023-01-31T07:17:40;100627.72;;;4.81;91.83
37778;BME280;23615;51.506;7.678;2023-01-31T07:20:06;100617.16;;;4.81;91.91
37778;BME280;23615;51.506;7.678;2023-01-31T07:22:31;100621.75;;;4.87;92.07
37778;BME280;23615;51.506;7.678;2023-01-31T07:24:57;100626.56;;;4.76;91.97
37778;BME280;23615;51.506;7.678;2023-01-31T07:27:22;100619.25;;;4.86;92.50
37778;BME280;23615;51.506;7.678;2023-01-31T07:29:48;100632.19;;;4.81;92.85
37778;BME280;23615;51.506;7.678;2023-01-31T07:32:13;100628.84;;;4.87;92.36
37778;BME280;23615;51.506;7.678;2023-01-31T07:34:39;100612.00;;;4.88;92.55
37778;BME280;23615;51.506;7.678;2023-01-31T07:37:05;100601.78;;;4.77;92.39
37778;BME280;23615;51.506;7.678;2023-01-31T07:39:30;100617.81;;;4.75;92.40
37778;BME280;23615;51.506;7.678;2023-01-31T07:41:55;100612.53;;;4.75;92.95
37778;BME280;23615;51.506;7.678;2023-01-31T07:44:21;100617.28;;;4.88;92.41
37778;BME280;23615;51.506;7.678;2023-01-31T07:46:46;100613.50;;;4.82;92.74
37778;BME280;23615;51.506;7.678;2023-01-31T07:49:12;100608.53;;;4.87;92.66
37778;BME280;23615;51.506;7.678;2023-01-31T07:51:37;100608.69;;;4.86;92.65
37778;BME280;23615;51.506;7.678;2023-01-31T07:54:04;100607.00;;;4.93;92.35
37778;BME280;23615;51.506;7.678;2023-01-31T07:56:30;100614.09;;;4.93;92.26
37778;BME280;23615;51.506;7.678;2023-01-31T07:58:57;100614.25;;;4.99;92.27
37778;BME280;23615;51.506;7.678;2023-01-31T08:01:24;100633.28;;;4.95;92.56
37778;BME280;23615;51.506;7.678;2023-01-31T08:04:14;100614.81;;;4.86;92.58
37778;BME280;23615;51.506;7.678;2023-01-31T08:06:41;100618.94;;;4.89;93.04
37778;BME280;23615;51.506;7.678;2023-01-31T08:09:07;100600.38;;;4.97;92.88
37778;BME280;23615;51.506;7.678;2023-01-31T08:11:33;100601.66;;;5.01;92.05
37778;BME280;23615;51.506;7.678;2023-01-31T08:13:58;100591.09;;;5.01;91.78
37778;BME280;23615;51.506;7.678;2023-01-31T08:16:23;100575.44;;;5.00;92.07
37778;BME280;23615;51.506;7.678;2023-01-31T08:18:50;100588.31;;;4.95;92.23
37778;BME280;23615;51.506;7.678;2023-01-31T08:21:16;100571.63;;;4.94;92.27
37778;BME280;23615;51.506;7.678;2023-01-31T08:23:42;100570.13;;;5.00;92.13
37778;BME280;23615;51.506;7.678;2023-01-31T08:26:12;100564.66;;;5.01;92.20
37778;BME280;23615;51.506;7.678;2023-01-31T08:28:38;100577.88;;;5.01;92.57
37778;BME280;23615;51.506;7.678;2023-01-31T08:31:04;100567.28;;;5.01;92.13
37778;BME280;23615;51.506;7.678;2023-01-31T08:33:30;100562.50;;;5.05;92.60
37778;BME280;23615;51.506;7.678;2023-01-31T08:35:55;100557.84;;;5.07;92.14
37778;BME280;23615;51.506;7.678;2023-01-31T08:38:21;100560.34;;;5.08;92.08
37778;BME280;23615;51.506;7.678;2023-01-31T08:40:46;100565.00;;;4.98;92.15
37778;BME280;23615;51.506;7.678;2023-01-31T08:43:12;100546.28;;;5.08;92.46
37778;BME280;23615;51.506;7.678;2023-01-31T08:45:37;100546.88;;;5.18;92.03
37778;BME280;23615;51.506;7.678;2023-01-31T08:48:03;100553.03;;;5.10;91.80
37778;BME280;23615;51.506;7.678;2023-01-31T08:50:30;100544.81;;;5.28;91.28
37778;BME280;23615;51.506;7.678;2023-01-31T08:52:58;100548.53;;;5.19;91.74
37778;BME280;23615;51.506;7.678;2023-01-31T08:55:28;100552.34;;;5.39;91.83
37778;BME280;23615;51.506;7.678;2023-01-31T08:57:53;100558.34;;;5.33;91.16
37778;BME280;23615;51.506;7.678;2023-01-31T09:00:20;100549.31;;;5.28;92.13
37778;BME280;23615;51.506;7.678;2023-01-31T09:02:55;100555.16;;;5.15;92.22
37778;BME280;23615;51.506;7.678;2023-01-31T09:05:21;100551.63;;;5.00;93.35
37778;BME280;23615;51.506;7.678;2023-01-31T09:07:47;100563.88;;;4.93;94.44
37778;BME280;23615;51.506;7.678;2023-01-31T09:10:12;100558.91;;;4.98;95.18
37778;BME280;23615;51.506;7.678;2023-01-31T09:12:38;100552.13;;;4.95;95.68
37778;BME280;23615;51.506;7.678;2023-01-31T09:15:04;100556.97;;;4.83;95.60
37778;BME280;23615;51.506;7.678;2023-01-31T09:17:29;100553.25;;;4.70;96.66
37778;BME280;23615;51.506;7.678;2023-01-31T09:19:55;100566.50;;;4.62;96.84
37778;BME280;23615;51.506;7.678;2023-01-31T09:22:21;100560.25;;;4.63;98.09
37778;BME280;23615;51.506;7.678;2023-01-31T09:24:47;100541.91;;;4.61;98.03
37778;BME280;23615;51.506;7.678;2023-01-31T09:27:12;100520.44;;;4.64;97.94
37778;BME280;23615;51.506;7.678;2023-01-31T09:29:37;100522.09;;;4.57;98.48
37778;BME280;23615;51.506;7.678;2023-01-31T09:32:03;100524.75;;;4.57;99.68
37778;BME280;23615;51.506;7.678;2023-01-31T09:34:29;100526.44;;;4.81;99.36
37778;BME280;23615;51.506;7.678;2023-01-31T09:36:54;100527.06;;;4.83;99.05
37778;BME280;23615;51.506;7.678;2023-01-31T09:39:22;100523.63;;;4.82;99.72
37778;BME280;23615;51.506;7.678;2023-01-31T09:41:49;100524.19;;;4.70;99.90
37778;BME280;23615;51.506;7.678;2023-01-31T09:44:20;100526.75;;;4.86;99.85
37778;BME280;23615;51.506;7.678;2023-01-31T09:46:54;100519.59;;;4.95;98.94
37778;BME280;23615;51.506;7.678;2023-01-31T09:49:25;100521.56;;;4.93;98.53
37778;BME280;23615;51.506;7.678;2023-01-31T09:51:55;100507.53;;;4.92;98.40
37778;BME280;23615;51.506;7.678;2023-01-31T09:54:27;100517.31;;;4.92;99.11
37778;BME280;23615;51.506;7.678;2023-01-31T10:02:57;100511.59;;;4.80;100.00
37778;BME280;23615;51.506;7.678;2023-01-31T10:10:59;100496.94;;;4.92;100.00
37778;BME280;23615;51.506;7.678;2023-01-31T10:13:33;100478.66;;;4.91;100.00
37778;BME280;23615;51.506;7.678;2023-01-31T10:18:35;100493.31;;;4.93;100.00
37778;BME280;23615;51.506;7.678;2023-01-31T10:21:09;100493.69;;;4.90;100.00
37778;BME280;23615;51.506;7.678;2023-01-31T10:23:42;100486.69;;;4.97;100.00
37778;BME280;23615;51.506;7.678;2023-01-31T10:26:12;100477.66;;;4.92;100.00
37778;BME280;23615;51.506;7.678;2023-01-31T10:28:54;100467.84;;;5.00;100.00
37778;BME280;23615;51.506;7.678;2023-01-31T10:31:51;100453.72;;;4.85;100.00
37778;BME280;23615;51.506;7.678;2023-01-31T10:34:29;100466.19;;;4.99;100.00
37778;BME280;23615;51.506;7.678;2023-01-31T10:37:10;100464.22;;;4.93;100.00
37778;BME280;23615;51.506;7.678;2023-01-31T10:39:43;100471.44;;;4.76;100.00
37778;BME280;23615;51.506;7.678;2023-01-31T10:42:35;100461.25;;;4.73;100.00
37778;BME280;23615;51.506;7.678;2023-01-31T10:47:35;100443.31;;;4.83;100.00
37778;BME280;23615;51.506;7.678;2023-01-31T10:50:12;100442.78;;;4.65;100.00
37778;BME280;23615;51.506;7.678;2023-01-31T10:53:01;100439.09;;;4.74;100.00
37778;BME280;23615;51.506;7.678;2023-01-31T10:55:54;100441.44;;;4.69;100.00
37778;BME280;23615;51.506;7.678;2023-01-31T10:58:22;100437.63;;;4.72;100.00
37778;BME280;23615;51.506;7.678;2023-01-31T11:00:48;100422.59;;;4.72;100.00
37778;BME280;23615;51.506;7.678;2023-01-31T11:03:14;100410.97;;;4.81;100.00
37778;BME280;23615;51.506;7.678;2023-01-31T11:05:47;100411.41;;;4.85;100.00
37778;BME280;23615;51.506;7.678;2023-01-31T11:08:27;100404.56;;;4.76;100.00
37778;BME280;23615;51.506;7.678;2023-01-31T11:10:55;100403.50;;;4.85;100.00
37778;BME280;23615;51.506;7.678;2023-01-31T11:13:21;100406.38;;;4.75;100.00
37778;BME280;23615;51.506;7.678;2023-01-31T11:15:47;100397.38;;;4.84;100.00
37778;BME280;23615;51.506;7.678;2023-01-31T11:18:25;100393.69;;;4.71;100.00
37778;BME280;23615;51.506;7.678;2023-01-31T11:20:52;100390.44;;;4.83;100.00
37778;BME280;23615;51.506;7.678;2023-01-31T11:23:24;100394.47;;;4.79;100.00
37778;BME280;23615;51.506;7.678;2023-01-31T11:25:52;100409.09;;;4.90;100.00
37778;BME280;23615;51.506;7.678;2023-01-31T11:28:21;100381.69;;;4.83;100.00
37778;BME280;23615;51.506;7.678;2023-01-31T11:30:50;100372.78;;;4.84;100.00
37778;BME280;23615;51.506;7.678;2023-01-31T11:36:08;100379.78;;;4.77;100.00
37778;BME280;23615;51.506;7.678;2023-01-31T11:38:34;100369.19;;;5.00;100.00
37778;BME280;23615;51.506;7.678;2023-01-31T11:41:00;100375.09;;;5.02;100.00
37778;BME280;23615;51.506;7.678;2023-01-31T11:43:29;100386.88;;;4.99;100.00
37778;BME280;23615;51.506;7.678;2023-01-31T11:46:01;100378.22;;;5.05;100.00
37778;BME280;23615;51.506;7.678;2023-01-31T11:48:38;100381.69;;;5.06;100.00
37778;BME280;23615;51.506;7.678;2023-01-31T11:51:05;100370.03;;;5.15;100.00
37778;BME280;23615;51.506;7.678;2023-01-31T11:53:48;100358.19;;;5.25;100.00
37778;BME280;23615;51.506;7.678;2023-01-31T11:56:17;100351.25;;;5.10;100.00
37778;BME280;23615;51.506;7.678;2023-01-31T11:58:45;100361.75;;;5.18;100.00
37778;BME280;23615;51.506;7.678;2023-01-31T12:01:18;100352.72;;;5.27;100.00
37778;BME280;23615;51.506;7.678;2023-01-31T12:03:47;100363.41;;;5.34;100.00
37778;BME280;23615;51.506;7.678;2023-01-31T12:06:34;100361.19;;;5.37;100.00
37778;BME280;23615;51.506;7.678;2023-01-31T12:09:03;100359.09;;;5.47;100.00
37778;BME280;23615;51.506;7.678;2023-01-31T12:11:32;100358.66;;;5.44;100.00
37778;BME280;23615;51.506;7.678;2023-01-31T12:16:30;100341.69;;;5.68;100.00
37778;BME280;23615;51.506;7.678;2023-01-31T12:22:12;100345.34;;;5.52;100.00
37778;BME280;23615;51.506;7.678;2023-01-31T12:25:01;100358.47;;;5.60;100.00
37778;BME280;23615;51.506;7.678;2023-01-31T12:33:28;100313.31;;;5.61;100.00
37778;BME280;23615;51.506;7.678;2023-01-31T12:41:49;100315.38;;;5.66;100.00
37778;BME280;23615;51.506;7.678;2023-01-31T12:55:53;100310.19;;;5.58;100.00
37778;BME280;23615;51.506;7.678;2023-01-31T12:58:40;100310.84;;;5.60;100.00
37778;BME280;23615;51.506;7.678;2023-01-31T13:01:12;100299.69;;;5.64;100.00
37778;BME280;23615;51.506;7.678;2023-01-31T13:06:57;100310.00;;;5.59;100.00
37778;BME280;23615;51.506;7.678;2023-01-31T13:09:30;100305.19;;;5.63;100.00
37778;BME280;23615;51.506;7.678;2023-01-31T13:12:12;100303.44;;;5.55;100.00
37778;BME280;23615;51.506;7.678;2023-01-31T13:14:46;100313.31;;;5.61;100.00
37778;BME280;23615;51.506;7.678;2023-01-31T13:17:16;100311.47;;;5.62;100.00
37778;BME280;23615;51.506;7.678;2023-01-31T13:19:52;100312.03;;;5.57;100.00
37778;BME280;23615;51.506;7.678;2023-01-31T13:22:25;100321.34;;;5.53;100.00
37778;BME280;23615;51.506;7.678;2023-01-31T13:30:40;100322.72;;;5.64;100.00
37778;BME280;23615;51.506;7.678;2023-01-31T13:33:33;100321.69;;;5.65;100.00
37778;BME280;23615;51.506;7.678;2023-01-31T13:36:07;100331.63;;;5.78;100.00
37778;BME280;23615;51.506;7.678;2023-01-31T13:38:40;100331.81;;;5.76;100.00
37778;BME280;23615;51.506;7.678;2023-01-31T13:41:12;100331.38;;;5.73;100.00
37778;BME280;23615;51.506;7.678;2023-01-31T13:43:41;100324.03;;;5.75;100.00
37778;BME280;23615;51.506;7.678;2023-01-31T13:46:08;100321.59;;;5.73;100.00
37778;BME280;23615;51.506;7.678;2023-01-31T13:48:37;100319.69;;;5.82;100.00
37778;BME280;23615;51.506;7.678;2023-01-31T13:51:14;100311.31;;;5.63;100.00
37778;BME280;23615;51.506;7.678;2023-01-31T13:53:57;100310.56;;;5.70;100.00
37778;BME280;23615;51.506;7.678;2023-01-31T13:56:34;100316.84;;;5.69;100.00
37778;BME280;23615;51.506;7.678;2023-01-31T13:59:01;100320.59;;;5.59;100.00
37778;BME280;23615;51.506;7.678;2023-01-31T14:01:30;100317.59;;;5.62;100.00
37778;BME280;23615;51.506;7.678;2023-01-31T14:09:24;100308.72;;;5.70;100.00
37778;BME280;23615;51.506;7.678;2023-01-31T14:11:55;100305.91;;;5.72;100.00
37778;BME280;23615;51.506;7.678;2023-01-31T14:27:33;100285.81;;;5.77;100.00
37778;BME280;23615;51.506;7.678;2023-01-31T14:32:43;100292.19;;;5.97;100.00
37778;BME280;23615;51.506;7.678;2023-01-31T14:40:37;100304.59;;;5.97;100.00
37778;BME280;23615;51.506;7.678;2023-01-31T14:43:29;100308.69;;;5.85;100.00
37778;BME280;23615;51.506;7.678;2023-01-31T14:46:03;100300.56;;;5.86;100.00
37778;BME280;23615;51.506;7.678;2023-01-31T14:54:09;100308.63;;;5.78;100.00
37778;BME280;23615;51.506;7.678;2023-01-31T15:01:54;100299.22;;;5.76;100.00
37778;BME280;23615;51.506;7.678;2023-01-31T15:04:22;100292.38;;;5.81;100.00
37778;BME280;23615;51.506;7.678;2023-01-31T15:06:51;100313.56;;;5.81;100.00
37778;BME280;23615;51.506;7.678;2023-01-31T15:11:50;100319.03;;;5.80;100.00
37778;BME280;23615;51.506;7.678;2023-01-31T15:16:59;100340.38;;;5.78;100.00